BEE1991 EGHQ-EGJJ
Flight info
| Callsign | BEE1991 |
|---|---|
| Flight time | 0h 37m |
| Altitude | 19000 |
| Route | BHD DCT SKERY |
| Aircraft | DH8D/M-SDE2E3FGRY/H |
Departure
| Time | 2026-05-08 17:05 |
|---|---|
| Airport | Cornwall Airport Newquay (EGHQ) |
Arrival
| Time | 2026-05-08 17:42 |
|---|---|
| Airport | Jersey Airport (EGJJ) |
| Time | Latitude | Longitude | Altitude | Speed | Heading |
|---|---|---|---|---|---|
| 2026-05-08 16:39 | 50.44622 | -5.00300 | 334 ft | 0 kts | 78° |
| 2026-05-08 16:52 | 50.44621 | -5.00305 | 334 ft | 0 kts | 78° |
| 2026-05-08 16:52 | 50.44619 | -5.00325 | 332 ft | 2 kts | 76° |
| 2026-05-08 16:52 | 50.44615 | -5.00348 | 332 ft | 2 kts | 77° |
| 2026-05-08 16:52 | 50.44612 | -5.00371 | 332 ft | 2 kts | 77° |
| 2026-05-08 16:53 | 50.44608 | -5.00411 | 331 ft | 1 kts | 116° |
| 2026-05-08 16:53 | 50.44614 | -5.00424 | 330 ft | 0 kts | 124° |
| 2026-05-08 16:53 | 50.44616 | -5.00431 | 330 ft | 0 kts | 120° |
| 2026-05-08 16:56 | 50.44612 | -5.00420 | 331 ft | 5 kts | 121° |
| 2026-05-08 16:56 | 50.44575 | -5.00320 | 334 ft | 15 kts | 120° |
| 2026-05-08 16:56 | 50.44516 | -5.00166 | 339 ft | 16 kts | 120° |
| 2026-05-08 16:56 | 50.44461 | -5.00019 | 343 ft | 15 kts | 120° |
| 2026-05-08 16:57 | 50.44409 | -4.99881 | 346 ft | 14 kts | 120° |
| 2026-05-08 16:57 | 50.44357 | -4.99743 | 349 ft | 15 kts | 120° |
| 2026-05-08 16:57 | 50.44304 | -4.99600 | 352 ft | 14 kts | 121° |
| 2026-05-08 16:57 | 50.44251 | -4.99461 | 355 ft | 14 kts | 120° |
| 2026-05-08 16:58 | 50.44199 | -4.99323 | 358 ft | 14 kts | 121° |
| 2026-05-08 16:58 | 50.44147 | -4.99183 | 362 ft | 14 kts | 120° |
| 2026-05-08 16:58 | 50.44098 | -4.99050 | 366 ft | 14 kts | 121° |
| 2026-05-08 16:58 | 50.44049 | -4.98924 | 370 ft | 12 kts | 120° |
| 2026-05-08 16:59 | 50.44006 | -4.98808 | 375 ft | 11 kts | 121° |
| 2026-05-08 16:59 | 50.43965 | -4.98701 | 379 ft | 11 kts | 121° |
| 2026-05-08 16:59 | 50.43925 | -4.98595 | 382 ft | 11 kts | 120° |
| 2026-05-08 16:59 | 50.43881 | -4.98481 | 385 ft | 12 kts | 119° |
| 2026-05-08 17:00 | 50.43837 | -4.98361 | 388 ft | 13 kts | 120° |
| 2026-05-08 17:00 | 50.43787 | -4.98230 | 390 ft | 14 kts | 120° |
| 2026-05-08 17:00 | 50.43734 | -4.98087 | 391 ft | 16 kts | 120° |
| 2026-05-08 17:00 | 50.43674 | -4.97937 | 393 ft | 13 kts | 132° |
| 2026-05-08 17:01 | 50.43621 | -4.97877 | 393 ft | 5 kts | 154° |
| 2026-05-08 17:01 | 50.43585 | -4.97859 | 393 ft | 5 kts | 167° |
| 2026-05-08 17:01 | 50.43550 | -4.97851 | 393 ft | 0 kts | 178° |
| 2026-05-08 17:02 | 50.43541 | -4.97851 | 393 ft | 2 kts | 179° |
| 2026-05-08 17:02 | 50.43518 | -4.97852 | 394 ft | 3 kts | 186° |
| 2026-05-08 17:03 | 50.43487 | -4.97864 | 394 ft | 5 kts | 199° |
| 2026-05-08 17:03 | 50.43463 | -4.97900 | 393 ft | 5 kts | 266° |
| 2026-05-08 17:03 | 50.43470 | -4.97926 | 393 ft | 0 kts | 301° |
| 2026-05-08 17:04 | 50.43556 | -4.98113 | 391 ft | 59 kts | 300° |
| 2026-05-08 17:04 | 50.43914 | -4.99073 | 369 ft | 139 kts | 304° |
| 2026-05-08 17:04 | 50.44459 | -5.00535 | 670 ft | 163 kts | 303° |
| 2026-05-08 17:05 | 50.45045 | -5.02139 | 1240 ft | 180 kts | 301° |
| 2026-05-08 17:05 | 50.45713 | -5.03861 | 1758 ft | 201 kts | 311° |
| 2026-05-08 17:05 | 50.46619 | -5.05755 | 2117 ft | 226 kts | 301° |
| 2026-05-08 17:05 | 50.47477 | -5.07841 | 2779 ft | 233 kts | 314° |
| 2026-05-08 17:06 | 50.48854 | -5.09109 | 3411 ft | 236 kts | 347° |
| 2026-05-08 17:06 | 50.50485 | -5.09127 | 4047 ft | 236 kts | 12° |
| 2026-05-08 17:06 | 50.51941 | -5.08056 | 4682 ft | 235 kts | 43° |
| 2026-05-08 17:06 | 50.52812 | -5.05929 | 5306 ft | 234 kts | 75° |
| 2026-05-08 17:07 | 50.52896 | -5.03408 | 5943 ft | 235 kts | 96° |
| 2026-05-08 17:07 | 50.52736 | -5.00887 | 6610 ft | 238 kts | 99° |
| 2026-05-08 17:07 | 50.52499 | -4.98315 | 7291 ft | 240 kts | 99° |
| 2026-05-08 17:07 | 50.52282 | -4.95709 | 7967 ft | 243 kts | 99° |
| 2026-05-08 17:08 | 50.52068 | -4.93083 | 8621 ft | 246 kts | 99° |
| 2026-05-08 17:08 | 50.51851 | -4.90411 | 9275 ft | 249 kts | 99° |
| 2026-05-08 17:08 | 50.51633 | -4.87706 | 9935 ft | 253 kts | 99° |
| 2026-05-08 17:08 | 50.51412 | -4.84954 | 10588 ft | 255 kts | 99° |
| 2026-05-08 17:09 | 50.51192 | -4.82216 | 11218 ft | 258 kts | 99° |
| 2026-05-08 17:09 | 50.50965 | -4.79383 | 11821 ft | 262 kts | 99° |
| 2026-05-08 17:09 | 50.50739 | -4.76568 | 12421 ft | 264 kts | 99° |
| 2026-05-08 17:09 | 50.50509 | -4.73708 | 12992 ft | 266 kts | 99° |
| 2026-05-08 17:10 | 50.50274 | -4.70796 | 13527 ft | 269 kts | 99° |
| 2026-05-08 17:10 | 50.50040 | -4.67897 | 14027 ft | 272 kts | 99° |
| 2026-05-08 17:10 | 50.49800 | -4.64943 | 14523 ft | 275 kts | 99° |
| 2026-05-08 17:10 | 50.49556 | -4.61933 | 15003 ft | 277 kts | 99° |
| 2026-05-08 17:11 | 50.49312 | -4.58944 | 15486 ft | 280 kts | 100° |
| 2026-05-08 17:11 | 50.49064 | -4.55911 | 15913 ft | 283 kts | 100° |
| 2026-05-08 17:11 | 50.48813 | -4.52841 | 16375 ft | 285 kts | 100° |
| 2026-05-08 17:11 | 50.48556 | -4.49726 | 16804 ft | 288 kts | 100° |
| 2026-05-08 17:12 | 50.48301 | -4.46628 | 17226 ft | 290 kts | 100° |
| 2026-05-08 17:12 | 50.48040 | -4.43485 | 17624 ft | 292 kts | 100° |
| 2026-05-08 17:12 | 50.47775 | -4.40300 | 18012 ft | 294 kts | 100° |
| 2026-05-08 17:12 | 50.47510 | -4.37132 | 18390 ft | 296 kts | 100° |
| 2026-05-08 17:13 | 50.47243 | -4.33934 | 18762 ft | 298 kts | 101° |
| 2026-05-08 17:13 | 50.46968 | -4.30668 | 18952 ft | 306 kts | 101° |
| 2026-05-08 17:13 | 50.46682 | -4.27285 | 19005 ft | 318 kts | 100° |
| 2026-05-08 17:13 | 50.46386 | -4.23802 | 19020 ft | 329 kts | 100° |
| 2026-05-08 17:14 | 50.46081 | -4.20216 | 19023 ft | 338 kts | 100° |
| 2026-05-08 17:14 | 50.45767 | -4.16524 | 19019 ft | 346 kts | 100° |
| 2026-05-08 17:14 | 50.45445 | -4.12764 | 19021 ft | 352 kts | 100° |
| 2026-05-08 17:14 | 50.45116 | -4.08927 | 19019 ft | 357 kts | 100° |
| 2026-05-08 17:15 | 50.44777 | -4.05004 | 19017 ft | 361 kts | 100° |
| 2026-05-08 17:15 | 50.44440 | -4.01109 | 19012 ft | 364 kts | 100° |
| 2026-05-08 17:15 | 50.44100 | -3.97199 | 19015 ft | 366 kts | 100° |
| 2026-05-08 17:15 | 50.43751 | -3.93211 | 19014 ft | 367 kts | 100° |
| 2026-05-08 17:16 | 50.43405 | -3.89258 | 19012 ft | 369 kts | 100° |
| 2026-05-08 17:16 | 50.43055 | -3.85286 | 19018 ft | 369 kts | 100° |
| 2026-05-08 17:16 | 50.42703 | -3.81305 | 19015 ft | 370 kts | 100° |
| 2026-05-08 17:16 | 50.42350 | -3.77324 | 19011 ft | 370 kts | 100° |
| 2026-05-08 17:17 | 50.41992 | -3.73316 | 19020 ft | 370 kts | 100° |
| 2026-05-08 17:17 | 50.41635 | -3.69327 | 19014 ft | 370 kts | 100° |
| 2026-05-08 17:17 | 50.41277 | -3.65336 | 19021 ft | 370 kts | 100° |
| 2026-05-08 17:17 | 50.40919 | -3.61364 | 19020 ft | 369 kts | 99° |
| 2026-05-08 17:18 | 50.40558 | -3.57370 | 19019 ft | 368 kts | 100° |
| 2026-05-08 17:18 | 50.40147 | -3.53429 | 19004 ft | 366 kts | 105° |
| 2026-05-08 17:18 | 50.39043 | -3.49945 | 19022 ft | 357 kts | 131° |
| 2026-05-08 17:18 | 50.37136 | -3.47559 | 19045 ft | 350 kts | 151° |
| 2026-05-08 17:19 | 50.35009 | -3.45705 | 19013 ft | 351 kts | 153° |
| 2026-05-08 17:19 | 50.32870 | -3.43907 | 19008 ft | 351 kts | 154° |
| 2026-05-08 17:19 | 50.30721 | -3.42127 | 19013 ft | 351 kts | 154° |
| 2026-05-08 17:19 | 50.28536 | -3.40332 | 19015 ft | 351 kts | 154° |
| 2026-05-08 17:20 | 50.26394 | -3.38583 | 19013 ft | 351 kts | 154° |
| 2026-05-08 17:20 | 50.24231 | -3.36822 | 19010 ft | 351 kts | 154° |
| 2026-05-08 17:20 | 50.22051 | -3.35054 | 19009 ft | 350 kts | 154° |
| 2026-05-08 17:20 | 50.19915 | -3.33326 | 19010 ft | 349 kts | 155° |
| 2026-05-08 17:21 | 50.17749 | -3.31579 | 19006 ft | 349 kts | 155° |
| 2026-05-08 17:21 | 50.15605 | -3.29856 | 19020 ft | 348 kts | 155° |
| 2026-05-08 17:21 | 50.13466 | -3.28149 | 19007 ft | 348 kts | 155° |
| 2026-05-08 17:21 | 50.11318 | -3.26423 | 19003 ft | 348 kts | 155° |
| 2026-05-08 17:22 | 50.09138 | -3.24672 | 18998 ft | 348 kts | 155° |
| 2026-05-08 17:22 | 50.06987 | -3.22947 | 19002 ft | 348 kts | 155° |
| 2026-05-08 17:22 | 50.04850 | -3.21239 | 19007 ft | 348 kts | 155° |
| 2026-05-08 17:22 | 50.02693 | -3.19527 | 19005 ft | 348 kts | 155° |
| 2026-05-08 17:23 | 50.00539 | -3.17803 | 19001 ft | 349 kts | 154° |
| 2026-05-08 17:23 | 49.98461 | -3.15863 | 19004 ft | 350 kts | 149° |
| 2026-05-08 17:23 | 49.96425 | -3.13768 | 19004 ft | 350 kts | 148° |
| 2026-05-08 17:23 | 49.94404 | -3.11684 | 19001 ft | 349 kts | 148° |
| 2026-05-08 17:24 | 49.92395 | -3.09617 | 18996 ft | 349 kts | 148° |
| 2026-05-08 17:24 | 49.90373 | -3.07541 | 19000 ft | 349 kts | 148° |
| 2026-05-08 17:24 | 49.88325 | -3.05445 | 19003 ft | 348 kts | 148° |
| 2026-05-08 17:24 | 49.86328 | -3.03403 | 18997 ft | 348 kts | 148° |
| 2026-05-08 17:25 | 49.84298 | -3.01332 | 18999 ft | 348 kts | 148° |
| 2026-05-08 17:25 | 49.82263 | -2.99260 | 19001 ft | 347 kts | 148° |
| 2026-05-08 17:25 | 49.80250 | -2.97210 | 19002 ft | 347 kts | 148° |
| 2026-05-08 17:25 | 49.78232 | -2.95161 | 18999 ft | 348 kts | 149° |
| 2026-05-08 17:26 | 49.76211 | -2.93111 | 19001 ft | 348 kts | 149° |
| 2026-05-08 17:26 | 49.74196 | -2.91070 | 18853 ft | 353 kts | 149° |
| 2026-05-08 17:26 | 49.72105 | -2.88957 | 18487 ft | 362 kts | 149° |
| 2026-05-08 17:26 | 49.69984 | -2.86813 | 18045 ft | 358 kts | 148° |
| 2026-05-08 17:27 | 49.67966 | -2.84759 | 17606 ft | 340 kts | 148° |
| 2026-05-08 17:27 | 49.66056 | -2.82818 | 17196 ft | 323 kts | 148° |
| 2026-05-08 17:27 | 49.64210 | -2.80946 | 16813 ft | 308 kts | 148° |
| 2026-05-08 17:27 | 49.62465 | -2.79182 | 16424 ft | 295 kts | 148° |
| 2026-05-08 17:28 | 49.60782 | -2.77481 | 16051 ft | 282 kts | 149° |
| 2026-05-08 17:28 | 49.59181 | -2.75867 | 15718 ft | 270 kts | 149° |
| 2026-05-08 17:28 | 49.57659 | -2.74333 | 15417 ft | 260 kts | 149° |
| 2026-05-08 17:28 | 49.56128 | -2.72802 | 15103 ft | 265 kts | 149° |
| 2026-05-08 17:29 | 49.54553 | -2.71231 | 14784 ft | 271 kts | 149° |
| 2026-05-08 17:29 | 49.52972 | -2.69652 | 14450 ft | 276 kts | 149° |
| 2026-05-08 17:29 | 49.51357 | -2.68039 | 14133 ft | 280 kts | 149° |
| 2026-05-08 17:29 | 49.49696 | -2.66380 | 13746 ft | 284 kts | 148° |
| 2026-05-08 17:30 | 49.48038 | -2.64724 | 13408 ft | 286 kts | 148° |
| 2026-05-08 17:30 | 49.46355 | -2.63044 | 13044 ft | 288 kts | 148° |
| 2026-05-08 17:30 | 49.44675 | -2.61368 | 12681 ft | 290 kts | 148° |
| 2026-05-08 17:30 | 49.42936 | -2.59808 | 12318 ft | 289 kts | 154° |
| 2026-05-08 17:31 | 49.41093 | -2.58487 | 11965 ft | 290 kts | 156° |
| 2026-05-08 17:31 | 49.39265 | -2.57206 | 11609 ft | 290 kts | 156° |
| 2026-05-08 17:31 | 49.37453 | -2.55938 | 11259 ft | 290 kts | 156° |
| 2026-05-08 17:31 | 49.35606 | -2.54643 | 10891 ft | 290 kts | 156° |
| 2026-05-08 17:32 | 49.33796 | -2.53373 | 10534 ft | 289 kts | 156° |
| 2026-05-08 17:32 | 49.31968 | -2.52089 | 10177 ft | 288 kts | 156° |
| 2026-05-08 17:32 | 49.30153 | -2.50814 | 9830 ft | 288 kts | 155° |
| 2026-05-08 17:32 | 49.28337 | -2.49538 | 9474 ft | 287 kts | 155° |
| 2026-05-08 17:33 | 49.26536 | -2.48272 | 9121 ft | 281 kts | 155° |
| 2026-05-08 17:33 | 49.24813 | -2.47055 | 8780 ft | 267 kts | 155° |
| 2026-05-08 17:33 | 49.23148 | -2.45910 | 8451 ft | 254 kts | 159° |
| 2026-05-08 17:33 | 49.21469 | -2.45570 | 8148 ft | 240 kts | 186° |
| 2026-05-08 17:34 | 49.19973 | -2.46501 | 7886 ft | 227 kts | 214° |
| 2026-05-08 17:34 | 49.18832 | -2.48004 | 7707 ft | 210 kts | 220° |
| 2026-05-08 17:34 | 49.17790 | -2.49444 | 7561 ft | 193 kts | 220° |
| 2026-05-08 17:34 | 49.16801 | -2.50816 | 7132 ft | 192 kts | 220° |
| 2026-05-08 17:35 | 49.15829 | -2.52174 | 6659 ft | 190 kts | 220° |
| 2026-05-08 17:35 | 49.14852 | -2.53542 | 6128 ft | 190 kts | 220° |
| 2026-05-08 17:35 | 49.13780 | -2.54597 | 5617 ft | 185 kts | 192° |
| 2026-05-08 17:35 | 49.12556 | -2.54485 | 5136 ft | 178 kts | 153° |
| 2026-05-08 17:36 | 49.11720 | -2.53237 | 4751 ft | 166 kts | 111° |
| 2026-05-08 17:36 | 49.11701 | -2.51589 | 4430 ft | 152 kts | 66° |
| 2026-05-08 17:36 | 49.12420 | -2.50440 | 4008 ft | 163 kts | 37° |
| 2026-05-08 17:36 | 49.13387 | -2.49434 | 4105 ft | 177 kts | 37° |
| 2026-05-08 17:37 | 49.14481 | -2.48271 | 3959 ft | 208 kts | 37° |
| 2026-05-08 17:37 | 49.15715 | -2.46956 | 3754 ft | 219 kts | 37° |
| 2026-05-08 17:37 | 49.16941 | -2.45663 | 3488 ft | 208 kts | 37° |
| 2026-05-08 17:37 | 49.18105 | -2.44443 | 3208 ft | 196 kts | 37° |
| 2026-05-08 17:38 | 49.18987 | -2.43060 | 2922 ft | 175 kts | 69° |
| 2026-05-08 17:38 | 49.19178 | -2.41350 | 2656 ft | 155 kts | 90° |
| 2026-05-08 17:38 | 49.19186 | -2.39770 | 2463 ft | 145 kts | 89° |
| 2026-05-08 17:38 | 49.19239 | -2.38272 | 2399 ft | 137 kts | 86° |
| 2026-05-08 17:39 | 49.19333 | -2.36829 | 2343 ft | 137 kts | 85° |
| 2026-05-08 17:39 | 49.19449 | -2.35284 | 2235 ft | 151 kts | 84° |
| 2026-05-08 17:39 | 49.19584 | -2.33684 | 2055 ft | 155 kts | 84° |
| 2026-05-08 17:39 | 49.19730 | -2.32072 | 1795 ft | 152 kts | 83° |
| 2026-05-08 17:40 | 49.19873 | -2.30529 | 1592 ft | 138 kts | 83° |
| 2026-05-08 17:40 | 49.19992 | -2.29106 | 1393 ft | 132 kts | 83° |
| 2026-05-08 17:40 | 49.20100 | -2.27761 | 1203 ft | 126 kts | 83° |
| 2026-05-08 17:40 | 49.20208 | -2.26452 | 1033 ft | 121 kts | 84° |
| 2026-05-08 17:41 | 49.20312 | -2.25171 | 889 ft | 123 kts | 84° |
| 2026-05-08 17:41 | 49.20430 | -2.23868 | 777 ft | 127 kts | 83° |
| 2026-05-08 17:41 | 49.20556 | -2.22500 | 570 ft | 130 kts | 83° |
| 2026-05-08 17:41 | 49.20663 | -2.21153 | 387 ft | 125 kts | 83° |
| 2026-05-08 17:42 | 49.20768 | -2.19883 | 274 ft | 101 kts | 82° |
| 2026-05-08 17:42 | 49.20823 | -2.19229 | 276 ft | 39 kts | 84° |
| 2026-05-08 17:42 | 49.20849 | -2.18891 | 275 ft | 27 kts | 83° |
| 2026-05-08 17:42 | 49.20871 | -2.18624 | 274 ft | 24 kts | 82° |
| 2026-05-08 17:43 | 49.20881 | -2.18469 | 275 ft | 15 kts | 88° |
| 2026-05-08 17:43 | 49.20808 | -2.18381 | 275 ft | 14 kts | 193° |
| 2026-05-08 17:43 | 49.20732 | -2.18498 | 274 ft | 11 kts | 257° |
| 2026-05-08 17:43 | 49.20722 | -2.18623 | 274 ft | 17 kts | 263° |
| 2026-05-08 17:44 | 49.20704 | -2.18832 | 274 ft | 18 kts | 264° |
| 2026-05-08 17:44 | 49.20688 | -2.19023 | 275 ft | 20 kts | 263° |
| 2026-05-08 17:44 | 49.20679 | -2.19204 | 275 ft | 18 kts | 277° |
| 2026-05-08 17:44 | 49.20701 | -2.19332 | 275 ft | 14 kts | 285° |
| 2026-05-08 17:45 | 49.20702 | -2.19479 | 275 ft | 10 kts | 260° |
| 2026-05-08 17:45 | 49.20686 | -2.19593 | 275 ft | 8 kts | 248° |
| 2026-05-08 17:45 | 49.20639 | -2.19665 | 275 ft | 9 kts | 205° |
| 2026-05-08 17:45 | 49.20610 | -2.19785 | 274 ft | 10 kts | 264° |
| 2026-05-08 17:46 | 49.20585 | -2.19920 | 273 ft | 7 kts | 213° |
| 2026-05-08 17:46 | 49.20518 | -2.19918 | 273 ft | 14 kts | 173° |
| 2026-05-08 17:46 | 49.20448 | -2.19903 | 273 ft | 11 kts | 159° |
| 2026-05-08 17:46 | 49.20434 | -2.19818 | 274 ft | 6 kts | 84° |
| 2026-05-08 17:47 | 49.20451 | -2.19786 | 274 ft | 4 kts | 350° |
| 2026-05-08 17:47 | 49.20478 | -2.19780 | 274 ft | 2 kts | 353° |
| 2026-05-08 17:47 | 49.20488 | -2.19782 | 274 ft | 0 kts | 355° |